Time;durP1;ratioP1;P1;durP2;ratioP2;P2;SDS_P1;SDS_P2;PMS_P1;PMS_P2;Temp;Humidity;BMP_temperature;BMP_pressure;BME280_temperature;BME280_humidity;BME280_pressure;Samples;Min_cycle;Max_cycle;Signal;HPM_P1;HPM_P2
2022/04/27 00:01:46;;;;;;;12.60;2.78;;;;;;;16.69;56.38;100660.13;4994935;28;20507;-84
2022/04/27 00:04:11;;;;;;;16.23;3.17;;;;;;;16.74;56.25;100678.63;4996136;28;20033;-83
2022/04/27 00:06:37;;;;;;;10.98;3.13;;;;;;;16.68;56.38;100666.56;4998996;28;20022;-85
2022/04/27 00:09:04;;;;;;;7.00;2.90;;;;;;;16.70;56.47;100677.25;4999589;28;20054;-84
2022/04/27 00:11:29;;;;;;;12.27;3.60;;;;;;;16.64;56.36;100675.19;4999544;28;20021;-84
2022/04/27 00:13:56;;;;;;;8.45;3.30;;;;;;;16.50;56.25;100659.47;4999142;28;20078;-84
2022/04/27 00:16:22;;;;;;;8.02;3.17;;;;;;;16.38;56.60;100650.78;4999807;28;20029;-85
2022/04/27 00:18:48;;;;;;;6.80;2.80;;;;;;;16.44;56.36;100662.84;4999185;28;20054;-82
2022/04/27 00:21:13;;;;;;;20.25;4.00;;;;;;;16.40;56.06;100667.75;5005572;28;20030;-84
2022/04/27 00:23:39;;;;;;;34.75;3.65;;;;;;;16.33;55.94;100659.38;5000175;28;20028;-83
2022/04/27 00:26:05;;;;;;;12.57;4.45;;;;;;;16.28;56.11;100661.75;5000115;28;20459;-83
2022/04/27 00:28:31;;;;;;;7.13;2.72;;;;;;;16.21;56.54;100666.09;5000116;28;20041;-83
2022/04/27 00:30:56;;;;;;;11.32;3.05;;;;;;;16.14;56.78;100662.34;4998380;28;20026;-84
2022/04/27 00:33:21;;;;;;;8.13;3.10;;;;;;;16.05;57.89;100662.44;4998558;28;20018;-84
2022/04/27 00:35:47;;;;;;;10.73;2.55;;;;;;;16.03;58.10;100668.00;4997295;28;20109;-84
2022/04/27 00:38:13;;;;;;;15.23;3.45;;;;;;;15.96;57.97;100664.22;4999248;28;20052;-83
2022/04/27 00:40:38;;;;;;;12.60;3.67;;;;;;;15.94;58.28;100663.53;4997588;28;20495;-82
2022/04/27 00:43:03;;;;;;;9.07;2.78;;;;;;;15.89;58.10;100660.47;5001947;28;20487;-84
2022/04/27 00:45:29;;;;;;;17.90;4.88;;;;;;;15.80;58.43;100639.72;5010303;28;20058;-85
2022/04/27 00:47:55;;;;;;;18.00;3.92;;;;;;;15.79;58.30;100649.69;5004524;28;20530;-85
2022/04/27 00:50:20;;;;;;;20.67;3.97;;;;;;;15.82;58.53;100659.38;5000910;28;20027;-84
2022/04/27 00:52:46;;;;;;;17.10;4.05;;;;;;;15.73;58.72;100650.34;4998424;28;20026;-84
2022/04/27 00:55:11;;;;;;;20.80;3.85;;;;;;;15.79;58.85;100665.97;4997459;28;20065;-84
2022/04/27 00:57:42;;;;;;;8.18;3.17;;;;;;;15.78;58.22;100661.56;4996049;28;20033;-84
2022/04/27 01:00:08;;;;;;;13.63;2.80;;;;;;;15.86;57.31;100658.06;4996891;28;20026;-83
2022/04/27 01:02:35;;;;;;;11.48;3.40;;;;;;;15.92;57.95;100664.72;4997269;28;20473;-83
2022/04/27 01:05:00;;;;;;;8.40;3.15;;;;;;;16.06;58.37;100673.13;4995816;28;20053;-83
2022/04/27 01:07:28;;;;;;;6.43;3.20;;;;;;;15.82;58.42;100669.38;5012387;28;20049;-85
2022/04/27 01:09:55;;;;;;;10.98;4.28;;;;;;;15.83;59.14;100661.09;4996678;28;20041;-84
2022/04/27 01:12:21;;;;;;;16.45;4.20;;;;;;;15.91;59.64;100661.13;4997641;28;20054;-83
2022/04/27 01:14:50;;;;;;;12.40;5.85;;;;;;;16.04;60.85;100677.00;4997014;28;20424;-84
2022/04/27 01:17:16;;;;;;;11.20;4.70;;;;;;;16.13;61.19;100674.19;4997500;28;20045;-84
2022/04/27 01:19:42;;;;;;;17.17;4.30;;;;;;;16.21;60.70;100673.38;4996385;28;20057;-84
2022/04/27 01:22:08;;;;;;;14.68;5.13;;;;;;;16.26;60.30;100654.78;4996733;28;20110;-83
2022/04/27 01:24:33;;;;;;;15.40;6.43;;;;;;;16.39;60.82;100665.19;4997958;28;20565;-85
2022/04/27 01:26:59;;;;;;;24.15;6.47;;;;;;;16.46;61.07;100660.81;4996750;28;20018;-84
2022/04/27 01:29:25;;;;;;;22.40;5.75;;;;;;;16.48;61.04;100666.94;4996363;28;20026;-83
2022/04/27 01:31:52;;;;;;;10.00;5.03;;;;;;;16.50;60.44;100651.34;4997002;28;20029;-84
2022/04/27 01:34:18;;;;;;;15.55;5.05;;;;;;;16.66;59.89;100663.16;4994722;28;20034;-84
2022/04/27 01:36:44;;;;;;;15.93;4.75;;;;;;;16.63;60.17;100659.94;4994597;28;20022;-85
2022/04/27 01:39:09;;;;;;;8.07;4.18;;;;;;;16.52;60.00;100649.28;4996812;28;20026;-83
2022/04/27 01:41:36;;;;;;;19.40;5.13;;;;;;;16.53;59.70;100665.44;4995811;28;20022;-84
2022/04/27 01:44:02;;;;;;;23.75;5.13;;;;;;;16.56;59.70;100670.59;4996159;28;20041;-84
2022/04/27 01:46:28;;;;;;;18.85;5.80;;;;;;;16.52;59.78;100658.31;4996434;28;20106;-86
2022/04/27 01:48:55;;;;;;;11.13;5.40;;;;;;;16.59;60.02;100666.69;4997236;28;20030;-84
2022/04/27 01:54:14;;;;;;;17.55;4.50;;;;;;;16.66;59.43;100670.47;4996702;28;20022;-84
2022/04/27 01:54:15;;;;;;;15.85;5.40;;;;;;;16.70;59.42;100672.66;4996501;28;20033;-84
2022/04/27 01:56:44;;;;;;;19.42;5.15;;;;;;;16.70;59.59;100686.25;5001886;28;20026;-85
2022/04/27 01:59:12;;;;;;;13.00;5.80;;;;;;;16.73;59.73;100682.34;4996462;28;20088;-85
2022/04/27 02:01:37;;;;;;;15.50;6.03;;;;;;;16.72;60.21;100680.69;4994845;28;20117;-84
2022/04/27 02:04:03;;;;;;;50.40;9.57;;;;;;;16.77;60.71;100678.31;4996216;28;20058;-84
2022/04/27 02:06:29;;;;;;;25.63;7.10;;;;;;;16.77;60.79;100672.88;5011114;28;20026;-84
2022/04/27 02:08:55;;;;;;;21.15;7.35;;;;;;;16.73;61.01;100668.78;4996217;28;20022;-85
2022/04/27 02:11:24;;;;;;;22.83;7.10;;;;;;;16.80;61.25;100683.41;4995488;28;20026;-84
2022/04/27 02:13:56;;;;;;;20.80;5.65;;;;;;;16.74;61.28;100681.34;5011426;28;20101;-84
2022/04/27 02:16:23;;;;;;;18.65;6.15;;;;;;;16.67;60.84;100688.44;4995746;28;20085;-84
2022/04/27 02:18:49;;;;;;;14.30;5.47;;;;;;;16.60;61.19;100671.97;4995888;28;20492;-85
2022/04/27 02:21:17;;;;;;;18.00;5.07;;;;;;;16.66;61.16;100678.59;4995826;28;20023;-84
2022/04/27 02:23:44;;;;;;;15.65;5.85;;;;;;;16.61;61.17;100670.94;4994562;28;20488;-84
2022/04/27 02:26:10;;;;;;;17.33;7.35;;;;;;;16.64;61.21;100676.03;4995194;28;20034;-84
2022/04/27 02:28:36;;;;;;;27.58;6.45;;;;;;;16.68;61.35;100671.13;4995416;28;20537;-84
2022/04/27 02:31:01;;;;;;;20.95;6.97;;;;;;;16.76;61.13;100673.88;4995759;28;20086;-84
2022/04/27 02:33:29;;;;;;;27.58;7.82;;;;;;;16.68;60.80;100657.56;4996779;28;20476;-84
2022/04/27 02:35:55;;;;;;;12.18;6.55;;;;;;;16.73;61.01;100676.91;4997102;28;20501;-85
2022/04/27 02:38:21;;;;;;;16.38;5.88;;;;;;;16.76;61.14;100682.03;4996208;28;20023;-85
2022/04/27 02:40:46;;;;;;;16.67;5.70;;;;;;;16.66;61.24;100670.47;4996785;28;20022;-85
2022/04/27 02:43:12;;;;;;;15.35;5.63;;;;;;;16.62;61.63;100685.38;4996744;28;20026;-85
2022/04/27 02:45:37;;;;;;;16.42;5.45;;;;;;;16.64;61.62;100678.75;4995972;28;20030;-84
2022/04/27 02:48:03;;;;;;;16.40;4.80;;;;;;;16.67;61.38;100688.44;4996587;28;20459;-83
2022/04/27 02:53:12;;;;;;;10.65;4.18;;;;;;;16.52;61.48;100661.00;4996191;28;20032;-84
2022/04/27 02:55:37;;;;;;;12.77;4.65;;;;;;;16.70;61.16;100674.53;4994252;28;20547;-85
2022/04/27 02:58:03;;;;;;;15.98;4.88;;;;;;;16.58;60.37;100657.69;4995664;28;20022;-86
2022/04/27 03:00:30;;;;;;;15.73;4.50;;;;;;;16.65;59.89;100674.19;4995130;28;20081;-84
2022/04/27 03:02:57;;;;;;;9.02;4.47;;;;;;;16.61;59.66;100686.38;4994835;28;20022;-84
2022/04/27 03:05:22;;;;;;;15.57;4.07;;;;;;;16.57;59.75;100687.72;4995415;28;20105;-84
2022/04/27 03:07:48;;;;;;;11.57;4.45;;;;;;;16.45;59.65;100664.56;4993045;28;20118;-83
2022/04/27 03:10:13;;;;;;;9.23;4.60;;;;;;;16.49;60.01;100682.19;4994868;28;20133;-84
2022/04/27 03:12:39;;;;;;;12.60;4.80;;;;;;;16.56;60.50;100686.88;4994643;28;20495;-85
2022/04/27 03:15:05;;;;;;;13.70;5.45;;;;;;;16.57;61.08;100687.72;4994664;28;20026;-83
2022/04/27 03:17:30;;;;;;;12.23;4.47;;;;;;;16.58;60.21;100690.28;4995243;28;20034;-84
2022/04/27 03:19:56;;;;;;;20.83;5.28;;;;;;;16.59;60.10;100696.56;4995578;28;20042;-83
2022/04/27 03:22:22;;;;;;;18.17;5.88;;;;;;;16.69;59.68;100703.59;4993810;28;20102;-83
2022/04/27 03:24:47;;;;;;;9.57;5.47;;;;;;;16.69;59.34;100697.28;5002525;28;20105;-83
2022/04/27 03:27:13;;;;;;;20.33;6.30;;;;;;;16.78;59.70;100708.03;5006083;28;20037;-82
2022/04/27 03:29:38;;;;;;;19.00;5.60;;;;;;;16.84;59.18;100709.25;5003418;28;20118;-83
2022/04/27 03:32:04;;;;;;;13.13;5.30;;;;;;;16.81;59.47;100709.56;4998059;28;20025;-85
2022/04/27 03:34:30;;;;;;;22.20;5.97;;;;;;;16.96;59.49;100713.38;4996400;28;20022;-85
2022/04/27 03:36:55;;;;;;;14.80;8.25;;;;;;;16.99;59.74;100721.19;4996044;28;20501;-85
2022/04/27 03:39:21;;;;;;;24.08;9.35;;;;;;;16.97;60.03;100706.91;4997438;28;20022;-84
2022/04/27 03:41:46;;;;;;;23.70;8.95;;;;;;;17.06;60.13;100715.97;4996578;28;20522;-85
2022/04/27 03:44:12;;;;;;;21.55;7.88;;;;;;;17.10;59.98;100717.31;4998223;28;20053;-86
2022/04/27 03:46:37;;;;;;;28.73;8.68;;;;;;;17.09;60.23;100711.06;4998257;28;20544;-84
2022/04/27 03:49:03;;;;;;;24.73;10.27;;;;;;;17.13;60.13;100726.00;5000606;28;20034;-83
2022/04/27 03:51:28;;;;;;;24.65;9.07;;;;;;;17.11;60.11;100724.47;4999056;28;20023;-85
2022/04/27 03:53:53;;;;;;;25.60;10.45;;;;;;;17.06;60.23;100716.81;4997872;28;20109;-85
2022/04/27 03:56:19;;;;;;;30.02;10.73;;;;;;;17.19;60.47;100733.50;4997477;28;20018;-84
2022/04/27 03:58:44;;;;;;;23.45;9.50;;;;;;;17.14;60.29;100724.13;4996308;28;20027;-85
2022/04/27 04:01:10;;;;;;;50.85;11.68;;;;;;;17.15;60.31;100715.84;4997790;28;20033;-85
2022/04/27 04:03:35;;;;;;;52.03;11.50;;;;;;;17.33;60.55;100735.59;4997773;28;20033;-84
2022/04/27 04:06:01;;;;;;;34.47;11.70;;;;;;;17.32;60.73;100731.16;4996777;28;20026;-84
2022/04/27 04:08:26;;;;;;;35.22;11.63;;;;;;;17.32;60.92;100723.00;4997728;28;20026;-84
2022/04/27 04:10:52;;;;;;;40.00;11.38;;;;;;;17.32;61.33;100733.03;4997923;28;20026;-85
2022/04/27 04:13:17;;;;;;;48.33;11.52;;;;;;;17.32;61.58;100741.19;4997335;28;20053;-85
2022/04/27 04:15:43;;;;;;;30.45;12.48;;;;;;;17.28;61.79;100737.06;4997997;28;20018;-85
2022/04/27 04:18:08;;;;;;;36.22;12.00;;;;;;;17.28;61.45;100716.19;4997856;28;20103;-84
2022/04/27 04:20:34;;;;;;;35.22;11.95;;;;;;;17.40;61.40;100733.03;4996198;28;20037;-83
2022/04/27 04:22:59;;;;;;;64.18;12.82;;;;;;;17.48;61.17;100743.09;4994219;28;20101;-78
2022/04/27 04:30:53;;;;;;;55.15;12.80;;;;;;;17.64;61.31;100745.88;4975000;28;20515;-77
2022/04/27 04:33:18;;;;;;;46.70;13.20;;;;;;;17.67;61.31;100753.72;4983875;28;20023;-79
2022/04/27 04:35:44;;;;;;;54.97;12.52;;;;;;;17.76;61.29;100750.00;4994143;28;20033;-79
2022/04/27 04:38:09;;;;;;;67.72;12.93;;;;;;;17.82;61.14;100758.34;4994090;28;20018;-78
2022/04/27 04:40:35;;;;;;;38.75;12.23;;;;;;;17.88;60.80;100762.25;4994314;28;20022;-78
2022/04/27 04:43:01;;;;;;;42.05;12.95;;;;;;;17.86;60.84;100758.81;4994692;28;20425;-77
2022/04/27 04:45:27;;;;;;;43.05;12.75;;;;;;;17.92;60.47;100755.44;4994555;28;20026;-80
2022/04/27 04:47:53;;;;;;;39.42;11.23;;;;;;;18.00;60.16;100755.44;4995060;28;20105;-86
2022/04/27 04:50:19;;;;;;;46.28;12.00;;;;;;;18.11;59.67;100768.72;4994295;28;20033;-81
2022/04/27 04:52:47;;;;;;;62.05;16.45;;;;;;;18.19;59.41;100760.56;4995019;28;20464;-84
2022/04/27 04:55:13;;;;;;;51.65;12.95;;;;;;;18.35;59.41;100765.13;4995315;28;20105;-81
2022/04/27 04:57:38;;;;;;;69.68;13.80;;;;;;;18.30;59.42;100767.53;4994813;28;20029;-82
2022/04/27 05:00:09;;;;;;;62.60;13.88;;;;;;;18.45;59.68;100773.97;4997693;28;20054;-83
2022/04/27 05:02:35;;;;;;;84.93;16.27;;;;;;;18.55;59.57;100787.44;4994743;28;20022;-80
2022/04/27 05:05:04;;;;;;;57.92;12.43;;;;;;;18.63;59.51;100785.56;4995242;28;20029;-81
2022/04/27 05:07:33;;;;;;;76.22;15.07;;;;;;;18.68;58.68;100785.06;4994209;28;20382;-79
2022/04/27 05:09:59;;;;;;;82.20;16.58;;;;;;;18.71;58.95;100784.69;4994210;28;20018;-79
2022/04/27 05:12:24;;;;;;;137.63;21.63;;;;;;;18.76;58.97;100779.56;4994002;28;20053;-79
2022/04/27 05:14:51;;;;;;;58.05;14.68;;;;;;;18.85;59.07;100789.44;4993634;28;20030;-79
2022/04/27 05:17:16;;;;;;;68.68;13.77;;;;;;;18.89;59.22;100779.88;4994097;28;20031;-79
2022/04/27 05:19:43;;;;;;;54.92;14.95;;;;;;;18.97;58.96;100777.13;4981450;28;319954;-80
2022/04/27 05:22:08;;;;;;;97.85;17.20;;;;;;;19.07;58.81;100787.84;4993464;28;20053;-79
2022/04/27 05:24:35;;;;;;;52.88;14.13;;;;;;;19.17;57.80;100793.94;4993436;28;20108;-80
2022/04/27 05:27:01;;;;;;;51.55;13.15;;;;;;;19.30;57.08;100786.03;4993216;28;20041;-79
2022/04/27 05:32:12;;;;;;;55.80;13.20;;;;;;;19.57;54.58;100787.50;4993412;28;20510;-80
2022/04/27 05:34:37;;;;;;;71.05;13.38;;;;;;;19.71;55.02;100792.16;4993514;28;20786;-80
2022/04/27 05:37:03;;;;;;;48.22;11.45;;;;;;;19.83;54.54;100791.56;4994387;28;20033;-80
2022/04/27 05:39:29;;;;;;;63.65;15.15;;;;;;;19.93;53.93;100794.06;4994511;28;20030;-80
2022/04/27 05:41:55;;;;;;;69.15;18.70;;;;;;;20.05;53.57;100795.34;4993993;28;20037;-80
2022/04/27 05:44:22;;;;;;;61.65;12.07;;;;;;;20.20;52.44;100793.53;4994127;28;20030;-80
2022/04/27 05:46:55;;;;;;;76.82;13.65;;;;;;;20.30;51.74;100798.78;4994225;28;20139;-81
2022/04/27 05:49:20;;;;;;;98.65;27.83;;;;;;;20.31;51.69;100801.31;4993589;28;20034;-80
2022/04/27 05:51:46;;;;;;;64.75;15.93;;;;;;;20.33;51.24;100804.72;4994001;28;20018;-80
2022/04/27 05:54:14;;;;;;;67.32;12.48;;;;;;;20.32;51.32;100804.91;4994130;28;20396;-80
2022/04/27 05:56:40;;;;;;;43.17;10.75;;;;;;;20.30;50.85;100809.72;4994080;28;20022;-80
2022/04/27 05:59:06;;;;;;;55.05;14.60;;;;;;;20.31;51.11;100809.50;4994153;28;20097;-80
2022/04/27 06:01:32;;;;;;;40.08;9.68;;;;;;;20.29;50.41;100816.19;4992988;28;20026;-81
2022/04/27 06:03:57;;;;;;;51.22;10.90;;;;;;;20.45;50.76;100825.13;4994118;28;20030;-80
2022/04/27 06:06:27;;;;;;;44.22;10.68;;;;;;;20.57;50.46;100823.66;4998177;28;20049;-81
2022/04/27 06:08:53;;;;;;;48.15;10.85;;;;;;;20.68;49.98;100813.28;5011735;28;20030;-80
2022/04/27 06:11:22;;;;;;;47.08;11.82;;;;;;;20.76;49.72;100813.22;4995268;28;20019;-80
2022/04/27 06:13:48;;;;;;;41.75;13.32;;;;;;;20.81;49.53;100813.50;4993855;28;20092;-80
2022/04/27 06:16:14;;;;;;;45.88;11.13;;;;;;;20.89;49.18;100813.41;4993302;28;20030;-80
2022/04/27 06:18:40;;;;;;;28.23;7.68;;;;;;;20.97;48.31;100810.59;4994049;28;20406;-80
2022/04/27 06:21:09;;;;;;;122.07;18.52;;;;;;;21.09;46.26;100822.81;4993496;28;20034;-79
2022/04/27 06:23:37;;;;;;;17.13;4.82;;;;;;;21.10;44.23;100813.53;4994153;28;20022;-81
2022/04/27 06:26:05;;;;;;;14.45;3.85;;;;;;;21.12;42.82;100816.97;4994716;28;20571;-81
2022/04/27 06:28:31;;;;;;;17.83;3.88;;;;;;;21.06;42.85;100818.53;4993612;28;20448;-79
2022/04/27 06:30:56;;;;;;;6.05;2.28;;;;;;;21.14;41.01;100814.88;4993178;28;20171;-79
2022/04/27 06:33:22;;;;;;;26.23;3.78;;;;;;;21.20;41.10;100824.19;4993385;28;20030;-79
2022/04/27 06:35:48;;;;;;;24.08;4.20;;;;;;;21.16;43.13;100819.09;4993799;28;20085;-82
2022/04/27 06:38:13;;;;;;;13.48;3.42;;;;;;;21.20;43.01;100830.53;4993856;28;20022;-79
2022/04/27 06:40:38;;;;;;;12.40;4.22;;;;;;;21.33;43.10;100830.72;4993135;28;20032;-79
2022/04/27 06:43:04;;;;;;;28.65;4.18;;;;;;;21.52;41.79;100830.16;4993894;28;20018;-80
2022/04/27 06:45:31;;;;;;;17.27;3.88;;;;;;;21.59;42.05;100827.47;4992971;28;20030;-79
2022/04/27 06:47:59;;;;;;;18.33;4.07;;;;;;;21.67;41.43;100835.59;4993095;28;20385;-79
2022/04/27 06:50:25;;;;;;;15.10;4.05;;;;;;;21.70;41.41;100827.00;4993045;28;20030;-79
2022/04/27 06:52:52;;;;;;;21.70;6.13;;;;;;;21.83;42.27;100843.59;4992601;28;20105;-79
2022/04/27 06:55:18;;;;;;;25.95;6.20;;;;;;;21.80;43.88;100845.88;4992447;28;20088;-79
2022/04/27 06:57:43;;;;;;;16.40;3.78;;;;;;;21.82;42.18;100843.78;4992449;28;20026;-79
2022/04/27 07:00:10;;;;;;;19.80;4.90;;;;;;;21.83;41.90;100850.97;4992877;28;20053;-79
2022/04/27 07:02:35;;;;;;;20.73;4.93;;;;;;;21.81;42.35;100851.13;4992296;28;20051;-79
2022/04/27 07:05:01;;;;;;;13.07;3.72;;;;;;;21.76;41.69;100848.13;4992446;28;20054;-79
2022/04/27 07:07:30;;;;;;;16.80;3.78;;;;;;;21.71;40.95;100853.34;4992602;28;20049;-80
2022/04/27 07:09:56;;;;;;;11.32;3.40;;;;;;;21.83;39.01;100865.50;4992401;28;20488;-79
2022/04/27 07:12:23;;;;;;;13.38;2.60;;;;;;;21.89;39.38;100866.66;4992246;28;20029;-79
2022/04/27 07:14:50;;;;;;;14.02;3.40;;;;;;;21.85;39.38;100870.78;4992322;28;20027;-80
2022/04/27 07:17:16;;;;;;;11.32;2.60;;;;;;;21.85;38.78;100862.56;4991014;28;20023;-79
2022/04/27 07:19:41;;;;;;;9.32;2.67;;;;;;;21.93;38.86;100867.94;4990814;28;20065;-80
2022/04/27 07:22:07;;;;;;;43.65;13.45;;;;;;;21.89;38.97;100869.41;4992728;28;20022;-80
2022/04/27 07:24:33;;;;;;;6.28;2.22;;;;;;;21.92;38.90;100869.00;4992300;28;20412;-80
2022/04/27 07:26:58;;;;;;;8.70;3.30;;;;;;;22.09;38.71;100875.94;4992699;28;20035;-79
2022/04/27 07:29:24;;;;;;;11.57;2.25;;;;;;;21.90;38.17;100865.59;4990848;28;20034;-79
2022/04/27 07:31:50;;;;;;;8.68;2.53;;;;;;;21.98;38.27;100881.94;4992105;28;20030;-79
2022/04/27 07:34:15;;;;;;;17.00;2.58;;;;;;;22.05;38.30;100874.63;4991913;28;20452;-79
2022/04/27 07:36:41;;;;;;;16.15;2.85;;;;;;;22.04;37.68;100878.41;4992062;28;20045;-79
2022/04/27 07:39:06;;;;;;;18.27;3.03;;;;;;;21.92;37.59;100869.00;4992852;28;20046;-78
2022/04/27 07:41:33;;;;;;;11.48;2.28;;;;;;;21.91;37.81;100875.50;4992215;28;20026;-79
2022/04/27 07:43:58;;;;;;;6.60;2.50;;;;;;;22.10;38.20;100888.59;4992279;28;20030;-79
2022/04/27 07:46:24;;;;;;;15.98;3.42;;;;;;;22.15;39.00;100888.88;4992423;28;20026;-80
2022/04/27 07:48:51;;;;;;;30.70;5.13;;;;;;;22.27;39.06;100889.19;4992439;28;20049;-79
2022/04/27 07:51:17;;;;;;;19.23;3.13;;;;;;;22.20;39.03;100895.44;4995519;28;20029;-79
2022/04/27 07:53:43;;;;;;;25.85;3.38;;;;;;;22.11;39.01;100895.75;4992217;28;20037;-78
2022/04/27 07:56:09;;;;;;;12.73;3.63;;;;;;;22.02;38.45;100896.91;4993155;28;20424;-81
2022/04/27 07:58:35;;;;;;;17.10;3.22;;;;;;;22.17;38.44;100903.22;4993896;28;20034;-79
2022/04/27 08:01:01;;;;;;;8.98;3.20;;;;;;;22.28;39.33;100908.19;4992336;28;20031;-79
2022/04/27 08:03:27;;;;;;;14.55;2.78;;;;;;;22.43;39.75;100897.19;4992183;28;20029;-79
2022/04/27 08:05:52;;;;;;;31.15;4.13;;;;;;;22.48;40.58;100900.16;4990828;28;20407;-79
2022/04/27 08:08:17;;;;;;;22.70;3.50;;;;;;;22.52;40.53;100904.22;4991861;28;20061;-79
2022/04/27 08:10:43;;;;;;;25.95;5.30;;;;;;;22.50;40.12;100909.06;4992062;28;20029;-79
2022/04/27 08:13:08;;;;;;;24.10;3.15;;;;;;;22.60;39.98;100907.69;4992388;28;20026;-79
2022/04/27 08:15:34;;;;;;;12.27;3.60;;;;;;;22.56;39.84;100898.19;4994402;28;20046;-80
2022/04/27 08:18:02;;;;;;;20.83;4.30;;;;;;;22.53;40.34;100901.31;4993446;28;20135;-80
2022/04/27 08:23:16;;;;;;;8.82;3.38;;;;;;;22.51;40.04;100914.34;4991952;28;20038;-81
2022/04/27 08:25:42;;;;;;;11.50;2.50;;;;;;;22.52;39.10;100929.75;4994486;28;20082;-79
2022/04/27 08:28:08;;;;;;;5.90;2.15;;;;;;;22.44;38.74;100929.03;4994757;28;20030;-80
2022/04/27 08:30:35;;;;;;;10.88;2.95;;;;;;;22.31;39.53;100923.41;4995430;28;20026;-80
2022/04/27 08:33:02;;;;;;;13.57;3.15;;;;;;;22.34;40.23;100929.34;4995144;28;20030;-80
2022/04/27 08:35:28;;;;;;;12.60;2.92;;;;;;;22.30;41.55;100939.00;4993653;28;20385;-80
2022/04/27 08:37:54;;;;;;;15.32;3.95;;;;;;;22.21;43.30;100941.00;4995283;28;20089;-80
2022/04/27 08:40:19;;;;;;;14.48;2.95;;;;;;;22.16;44.20;100938.00;4994987;28;20026;-80
2022/04/27 08:42:45;;;;;;;17.52;3.67;;;;;;;22.01;45.97;100939.06;4994995;28;20495;-80
2022/04/27 08:45:10;;;;;;;17.30;3.53;;;;;;;21.87;46.09;100942.63;4995116;28;20030;-80
2022/04/27 08:47:36;;;;;;;11.95;3.33;;;;;;;21.91;45.93;100943.97;4994626;28;20030;-80
2022/04/27 08:50:21;;;;;;;10.57;3.45;;;;;;;22.06;45.52;100942.06;4994829;28;20484;-80
2022/04/27 08:52:48;;;;;;;16.38;4.05;;;;;;;21.86;45.96;100943.69;4995409;28;20031;-79
2022/04/27 08:55:14;;;;;;;11.77;3.20;;;;;;;21.79;45.85;100948.22;4994998;28;20085;-79
2022/04/27 08:57:40;;;;;;;6.95;2.25;;;;;;;21.88;46.65;100950.69;4995096;28;20507;-78
2022/04/27 09:00:08;;;;;;;14.45;4.43;;;;;;;21.85;47.26;100944.72;4994875;28;20026;-79
2022/04/27 09:02:35;;;;;;;8.02;3.00;;;;;;;21.86;46.43;100950.00;4995106;28;20077;-80
2022/04/27 09:05:12;;;;;;;12.77;3.80;;;;;;;21.82;45.76;100947.84;4994605;28;20019;-81
2022/04/27 09:07:51;;;;;;;18.75;3.72;;;;;;;21.55;46.09;100927.44;4993411;28;20030;-80
2022/04/27 09:10:22;;;;;;;13.93;3.10;;;;;;;21.36;46.54;100937.06;4994927;28;20109;-80
2022/04/27 09:12:53;;;;;;;21.55;5.10;;;;;;;21.27;47.14;100929.97;4994534;28;20417;-80
2022/04/27 09:15:21;;;;;;;13.80;3.03;;;;;;;21.08;47.03;100938.69;4994942;28;20420;-80
2022/04/27 09:20:47;;;;;;;6.93;2.40;;;;;;;21.11;47.65;100941.06;4994524;28;20511;-80
2022/04/27 09:23:28;;;;;;;10.32;3.00;;;;;;;21.11;47.69;100943.81;4995008;28;20053;-81
2022/04/27 09:26:00;;;;;;;13.52;3.40;;;;;;;21.07;48.52;100934.22;4994229;28;20022;-79
2022/04/27 09:28:26;;;;;;;;;;;;;;;21.07;48.22;100935.09;4995508;28;20405;-79
2022/04/27 09:30:52;;;;;;;14.90;4.28;;;;;;;20.96;49.23;100941.00;4995468;28;20091;-79
2022/04/27 09:33:30;;;;;;;8.68;3.38;;;;;;;20.93;49.42;100944.13;4994660;28;20464;-80
2022/04/27 09:35:56;;;;;;;10.45;2.72;;;;;;;21.07;49.40;100939.69;4993553;28;20030;-80
2022/04/27 09:38:21;;;;;;;9.70;2.88;;;;;;;21.27;48.90;100938.19;4994577;28;20050;-79
2022/04/27 09:40:56;;;;;;;16.42;3.30;;;;;;;21.35;46.93;100938.09;4994636;28;20108;-82
2022/04/27 09:43:44;;;;;;;17.08;3.22;;;;;;;21.31;46.66;100942.25;4995130;28;20027;-78
2022/04/27 09:46:17;;;;;;;25.48;4.15;;;;;;;21.46;46.14;100934.91;4998160;28;20014;-80
2022/04/27 09:48:47;;;;;;;12.30;3.00;;;;;;;21.61;45.40;100949.44;4994596;28;20037;-80
2022/04/27 09:51:14;;;;;;;11.45;3.10;;;;;;;21.79;45.20;100951.81;4995685;28;20026;-79
2022/04/27 09:53:45;;;;;;;12.43;4.63;;;;;;;21.69;47.21;100949.34;4999553;28;20023;-79
2022/04/27 09:56:14;;;;;;;21.55;4.50;;;;;;;21.58;48.10;100948.97;5004109;28;20030;-78
2022/04/27 09:58:43;;;;;;;14.35;4.10;;;;;;;21.43;48.65;100951.72;4998993;28;20172;-79
2022/04/27 10:01:11;;;;;;;10.88;4.35;;;;;;;21.36;49.47;100956.22;4993445;28;20034;-80
2022/04/27 10:03:39;;;;;;;15.85;4.97;;;;;;;21.32;49.60;100954.03;4993952;28;20105;-80
2022/04/27 10:06:04;;;;;;;12.20;4.53;;;;;;;21.19;50.54;100962.03;4994027;28;20104;-80
2022/04/27 10:08:32;;;;;;;20.75;4.38;;;;;;;21.04;51.03;100957.34;4993500;28;20049;-80
2022/04/27 10:10:58;;;;;;;19.40;4.10;;;;;;;21.11;50.58;100963.81;4993366;28;20108;-80
2022/04/27 10:13:25;;;;;;;19.67;4.47;;;;;;;21.42;50.41;100966.41;4993768;28;20097;-81
2022/04/27 10:15:51;;;;;;;21.45;4.97;;;;;;;21.57;49.61;100953.59;4992927;28;20034;-79
2022/04/27 10:18:19;;;;;;;11.32;3.42;;;;;;;21.71;48.75;100958.22;4993063;28;20046;-79
2022/04/27 10:20:51;;;;;;;24.10;3.20;;;;;;;21.77;47.29;100953.03;4993363;28;20050;-80
2022/04/27 10:23:33;;;;;;;15.50;3.17;;;;;;;21.80;47.49;100963.63;4993775;28;20089;-79
2022/04/27 10:26:18;;;;;;;7.90;2.33;;;;;;;21.68;46.23;100961.31;4991935;28;20459;-78
2022/04/27 10:28:51;;;;;;;19.52;3.35;;;;;;;21.86;46.15;100960.13;4993209;28;20023;-79
2022/04/27 10:31:48;;;;;;;40.88;4.30;;;;;;;21.97;46.38;100960.50;4995824;28;20094;-78
2022/04/27 10:34:21;;;;;;;6.85;2.72;;;;;;;22.05;46.23;100959.53;4994110;28;20049;-79
2022/04/27 10:36:51;;;;;;;6.25;2.67;;;;;;;21.93;45.73;100953.72;4995412;28;20098;-80
2022/04/27 10:39:23;;;;;;;16.30;3.15;;;;;;;22.08;46.00;100945.47;4992839;28;20069;-80
2022/04/27 10:42:15;;;;;;;8.10;2.38;;;;;;;22.11;45.34;100950.56;4992565;28;20026;-79
2022/04/27 10:44:50;;;;;;;5.80;2.67;;;;;;;22.21;45.03;100951.09;4996680;28;20061;-79
2022/04/27 10:47:20;;;;;;;19.33;3.22;;;;;;;22.30;44.07;100936.25;4995868;28;20073;-80
2022/04/27 10:49:47;;;;;;;18.85;3.33;;;;;;;22.20;44.03;100941.19;4994949;28;20018;-80
2022/04/27 10:52:13;;;;;;;7.13;2.80;;;;;;;22.26;45.41;100943.19;4993665;28;20030;-80
2022/04/27 10:54:41;;;;;;;15.32;3.25;;;;;;;22.19;44.42;100948.56;4994341;28;20472;-79
2022/04/27 10:57:15;;;;;;;16.73;3.22;;;;;;;22.26;44.31;100945.94;4992768;28;20022;-79
2022/04/27 10:59:44;;;;;;;9.77;2.53;;;;;;;22.45;43.83;100937.06;4991700;28;20519;-79
2022/04/27 11:02:43;;;;;;;11.55;3.30;;;;;;;22.41;44.58;100935.75;4992721;28;20037;-80
2022/04/27 11:05:11;;;;;;;16.42;2.97;;;;;;;22.49;44.45;100943.84;4975826;28;20061;-80
2022/04/27 11:07:43;;;;;;;14.10;3.25;;;;;;;22.40;44.37;100939.53;4992796;28;20088;-80
2022/04/27 11:10:18;;;;;;;7.60;2.47;;;;;;;22.48;44.75;100942.16;4992813;28;20110;-81
2022/04/27 11:12:49;;;;;;;8.73;3.28;;;;;;;22.53;44.94;100933.34;4992555;28;20049;-80
2022/04/27 11:15:25;;;;;;;9.13;2.67;;;;;;;22.40;43.39;100933.19;4992108;28;20093;-80
2022/04/27 11:18:01;;;;;;;18.35;2.92;;;;;;;22.40;43.33;100939.53;4990823;28;20062;-79
2022/04/27 11:20:36;;;;;;;12.38;3.03;;;;;;;22.45;44.43;100937.06;4992110;28;20493;-80
2022/04/27 11:23:07;;;;;;;9.52;2.65;;;;;;;22.48;43.86;100936.66;4991097;28;20034;-80
2022/04/27 11:25:35;;;;;;;14.13;3.03;;;;;;;22.51;43.50;100924.44;4992520;28;20030;-80
2022/04/27 11:28:02;;;;;;;11.52;2.20;;;;;;;22.63;42.94;100934.72;4992870;28;20408;-80
2022/04/27 11:30:30;;;;;;;8.98;2.50;;;;;;;22.57;43.29;100930.00;4994765;28;20036;-79
2022/04/27 11:32:57;;;;;;;10.98;4.28;;;;;;;22.74;43.39;100931.50;4991366;28;20496;-80
2022/04/27 11:35:24;;;;;;;9.70;2.90;;;;;;;23.02;42.89;100925.19;4992945;28;20030;-79